Terminal Aerodrome Forecast
Issued by NWS

Home | Current Version | Previous Version | Text Only | Print | Product List | Glossary On
Versions: 1 2 3 4 5 6 7 8 9 10 11 12 13 14 15 16 17 18 19 20 21 22 23 24 25 26 27
468
FTUS43 KDLH 051140
TAFHYR
TAF
KHYR 051140Z 0512/0612 00000KT P6SM SKC
     FM051800 18007KT P6SM OVC050
     FM052300 19007KT 4SM -SN OVC025
     FM060500 21003KT P6SM -SN OVC025=

USA.gov is the U.S. government's official web portal to all federal, state and local government web resources and services.